Airfield :
LOGIN :

Register | Disclaimer

   EN    FR    IT 

 










Legend :    VFR   Marginal VFR   IFR   Intensive IFR   Very Intensive IFR
Visi :
Ceiling :
>= 8 km
>= 3000ft
5 to 8 km
1000 to 3000 ft
1500m to 5 km
500 to 1000 ft
800 to 1500m
200 to 500 ft
< 800m
< 200 ft
Symbols :   Thunderstorms  Fog  Heavy snow  Heavy precipitations  Wind > 20 kt
SIGMETs :     Misc.  Thunderstorms  Icing  Turbulence  Mountain Waves  Volcanic Ashes






- Airport Elevation : 436 ft
- IATA code : ANG


LFBU - Angoulême Brie Champniers

CURRENT METAR :
  • 271500Z AUTO 27018KT 9999 SCT024 BKN032 BKN040 12/08 Q1011 NOSIG

EXPIRED METARs :
  • 271430Z AUTO 28023KT 9999 BKN023 BKN031 12/08 Q1010 BECMG 28010KT
  • 271400Z AUTO 27022G33KT 9999 SCT017 BKN022 BKN028 13/09 Q1008 BECMG 28010KT
  • 271330Z AUTO 27018KT 9999 BKN011 OVC016 13/12 Q1008 BECMG BKN018
  • 271300Z AUTO 28018KT 3200 -RA BR BKN009 OVC015 12/11 Q1007 TEMPO 30018G28KT BECMG 6000 -RADZ BKN018
  • 271230Z AUTO 27023KT 9999 BKN016 OVC024 12/11 Q1007 BECMG 28010KT

TAF TAF LFBU
Valid from the 27 at 12:00 until the 28 at 12:00 UTC


271100Z 2712/2812 30018G28KT 6000 -RADZ BKN012
BECMG 2712/2714 BKN018
BECMG 2714/2716 28010KT
BECMG 2718/2720 VRB02KT
BECMG 2800/2803 18007KT
BECMG 2804/2806 BKN012
TEMPO 2806/2812 2000 -DZ OVC005



MET'MAP, your aeronautical weather chart ! - Copyright ORBIFLY December 2007 - Disclaimer

ORBIFLY MET'MAP TEAM :

Programming & Development : Alexandra Zaïnal
Concept & original design : Baudouin d'Aumeries
Assistance for programming : Marc-Olivier Méhu
Technical & hardware support : Manuel Goepfert

Contact : metmap@orbifly.com




SOURCES & CREDITS :

   NOAA